sensor_id;sensor_type;location;lat;lon;timestamp;pressure;altitude;pressure_sealevel;temperature;humidity
36598;BME280;22607;49.550;11.940;2023-11-19T00:00:37;96869.56;;;4.58;100.00
36598;BME280;22607;49.550;11.940;2023-11-19T00:03:03;96863.41;;;4.59;100.00
36598;BME280;22607;49.550;11.940;2023-11-19T00:05:30;96850.84;;;4.75;100.00
36598;BME280;22607;49.550;11.940;2023-11-19T00:07:57;96844.00;;;4.93;100.00
36598;BME280;22607;49.550;11.940;2023-11-19T00:10:24;96849.16;;;4.64;100.00
36598;BME280;22607;49.550;11.940;2023-11-19T00:12:50;96834.63;;;4.51;100.00
36598;BME280;22607;49.550;11.940;2023-11-19T00:15:17;96827.78;;;4.50;100.00
36598;BME280;22607;49.550;11.940;2023-11-19T00:17:47;96834.53;;;4.72;100.00
36598;BME280;22607;49.550;11.940;2023-11-19T00:20:19;96828.66;;;4.70;100.00
36598;BME280;22607;49.550;11.940;2023-11-19T00:22:46;96827.25;;;4.76;100.00
36598;BME280;22607;49.550;11.940;2023-11-19T00:25:16;96826.75;;;4.82;100.00
36598;BME280;22607;49.550;11.940;2023-11-19T00:27:47;96821.19;;;4.46;100.00
36598;BME280;22607;49.550;11.940;2023-11-19T00:30:14;96826.84;;;4.61;100.00
36598;BME280;22607;49.550;11.940;2023-11-19T00:32:41;96818.22;;;4.60;100.00
36598;BME280;22607;49.550;11.940;2023-11-19T00:35:08;96819.28;;;4.48;100.00
36598;BME280;22607;49.550;11.940;2023-11-19T00:37:40;96823.28;;;4.62;100.00
36598;BME280;22607;49.550;11.940;2023-11-19T00:40:09;96825.88;;;4.62;100.00
36598;BME280;22607;49.550;11.940;2023-11-19T00:42:39;96811.66;;;4.66;100.00
36598;BME280;22607;49.550;11.940;2023-11-19T00:45:06;96805.88;;;4.53;100.00
36598;BME280;22607;49.550;11.940;2023-11-19T00:47:37;96797.41;;;4.90;100.00
36598;BME280;22607;49.550;11.940;2023-11-19T00:50:03;96788.25;;;4.86;100.00
36598;BME280;22607;49.550;11.940;2023-11-19T00:52:30;96785.91;;;4.83;100.00
36598;BME280;22607;49.550;11.940;2023-11-19T00:54:57;96799.06;;;4.71;100.00
36598;BME280;22607;49.550;11.940;2023-11-19T00:57:23;96784.69;;;4.87;100.00
36598;BME280;22607;49.550;11.940;2023-11-19T00:59:50;96787.00;;;4.70;100.00
36598;BME280;22607;49.550;11.940;2023-11-19T01:02:17;96791.66;;;4.57;100.00
36598;BME280;22607;49.550;11.940;2023-11-19T01:04:44;96777.81;;;5.06;100.00
36598;BME280;22607;49.550;11.940;2023-11-19T01:07:12;96782.91;;;4.68;100.00
36598;BME280;22607;49.550;11.940;2023-11-19T01:09:42;96767.16;;;4.89;100.00
36598;BME280;22607;49.550;11.940;2023-11-19T01:12:09;96760.59;;;4.65;100.00
36598;BME280;22607;49.550;11.940;2023-11-19T01:14:37;96778.91;;;4.73;100.00
36598;BME280;22607;49.550;11.940;2023-11-19T01:17:03;96775.22;;;4.86;100.00
36598;BME280;22607;49.550;11.940;2023-11-19T01:19:31;96771.94;;;4.74;100.00
36598;BME280;22607;49.550;11.940;2023-11-19T01:21:58;96769.47;;;4.72;100.00
36598;BME280;22607;49.550;11.940;2023-11-19T01:24:25;96759.88;;;4.93;100.00
36598;BME280;22607;49.550;11.940;2023-11-19T01:26:54;96756.06;;;4.67;100.00
36598;BME280;22607;49.550;11.940;2023-11-19T01:29:21;96753.47;;;4.77;100.00
36598;BME280;22607;49.550;11.940;2023-11-19T01:31:50;96752.06;;;5.03;100.00
36598;BME280;22607;49.550;11.940;2023-11-19T01:34:17;96751.41;;;4.81;100.00
36598;BME280;22607;49.550;11.940;2023-11-19T01:36:44;96752.75;;;4.75;100.00
36598;BME280;22607;49.550;11.940;2023-11-19T01:39:16;96752.50;;;4.88;100.00
36598;BME280;22607;49.550;11.940;2023-11-19T01:41:43;96746.31;;;5.09;100.00
36598;BME280;22607;49.550;11.940;2023-11-19T01:44:10;96732.59;;;5.17;100.00
36598;BME280;22607;49.550;11.940;2023-11-19T01:46:44;96735.22;;;4.87;100.00
36598;BME280;22607;49.550;11.940;2023-11-19T01:49:14;96737.16;;;4.75;100.00
36598;BME280;22607;49.550;11.940;2023-11-19T01:51:41;96739.06;;;4.83;100.00
36598;BME280;22607;49.550;11.940;2023-11-19T01:54:14;96731.63;;;5.18;100.00
36598;BME280;22607;49.550;11.940;2023-11-19T01:56:42;96743.44;;;4.92;100.00
36598;BME280;22607;49.550;11.940;2023-11-19T01:59:10;96742.75;;;4.80;100.00
36598;BME280;22607;49.550;11.940;2023-11-19T02:01:39;96745.63;;;4.87;100.00
36598;BME280;22607;49.550;11.940;2023-11-19T02:04:08;96755.78;;;4.70;100.00
36598;BME280;22607;49.550;11.940;2023-11-19T02:06:37;96725.34;;;5.01;100.00
36598;BME280;22607;49.550;11.940;2023-11-19T02:09:08;96716.59;;;4.82;100.00
36598;BME280;22607;49.550;11.940;2023-11-19T02:11:34;96717.16;;;4.85;100.00
36598;BME280;22607;49.550;11.940;2023-11-19T02:14:01;96712.63;;;4.97;100.00
36598;BME280;22607;49.550;11.940;2023-11-19T02:16:30;96685.91;;;4.85;100.00
36598;BME280;22607;49.550;11.940;2023-11-19T02:18:56;96690.84;;;4.89;100.00
36598;BME280;22607;49.550;11.940;2023-11-19T02:21:23;96683.97;;;5.07;100.00
36598;BME280;22607;49.550;11.940;2023-11-19T02:23:49;96664.13;;;4.96;100.00
36598;BME280;22607;49.550;11.940;2023-11-19T02:26:32;96675.94;;;4.91;100.00
36598;BME280;22607;49.550;11.940;2023-11-19T02:29:02;96671.53;;;5.01;100.00
36598;BME280;22607;49.550;11.940;2023-11-19T02:31:33;96655.25;;;4.89;100.00
36598;BME280;22607;49.550;11.940;2023-11-19T02:34:01;96635.22;;;4.90;100.00
36598;BME280;22607;49.550;11.940;2023-11-19T02:36:29;96660.00;;;5.04;100.00
36598;BME280;22607;49.550;11.940;2023-11-19T02:38:55;96654.72;;;4.76;100.00
36598;BME280;22607;49.550;11.940;2023-11-19T02:41:32;96644.59;;;4.72;100.00
36598;BME280;22607;49.550;11.940;2023-11-19T02:43:59;96650.63;;;4.73;100.00
36598;BME280;22607;49.550;11.940;2023-11-19T02:46:27;96651.94;;;4.87;100.00
36598;BME280;22607;49.550;11.940;2023-11-19T02:48:55;96662.22;;;4.98;100.00
36598;BME280;22607;49.550;11.940;2023-11-19T02:51:21;96658.13;;;4.86;100.00
36598;BME280;22607;49.550;11.940;2023-11-19T02:53:48;96647.84;;;4.84;100.00
36598;BME280;22607;49.550;11.940;2023-11-19T02:56:15;96654.69;;;4.95;100.00
36598;BME280;22607;49.550;11.940;2023-11-19T02:58:46;96657.47;;;4.84;100.00
36598;BME280;22607;49.550;11.940;2023-11-19T03:01:14;96636.59;;;4.94;100.00
36598;BME280;22607;49.550;11.940;2023-11-19T03:03:50;96649.22;;;4.89;100.00
36598;BME280;22607;49.550;11.940;2023-11-19T03:06:21;96646.78;;;4.77;100.00
36598;BME280;22607;49.550;11.940;2023-11-19T03:08:50;96665.09;;;4.95;100.00
36598;BME280;22607;49.550;11.940;2023-11-19T03:11:23;96661.78;;;5.03;100.00
36598;BME280;22607;49.550;11.940;2023-11-19T03:13:51;96650.72;;;4.91;100.00
36598;BME280;22607;49.550;11.940;2023-11-19T03:16:17;96647.56;;;4.97;100.00
36598;BME280;22607;49.550;11.940;2023-11-19T03:18:44;96638.94;;;4.87;100.00
36598;BME280;22607;49.550;11.940;2023-11-19T03:21:11;96638.53;;;4.82;100.00
36598;BME280;22607;49.550;11.940;2023-11-19T03:23:39;96631.13;;;4.87;100.00
36598;BME280;22607;49.550;11.940;2023-11-19T03:26:06;96636.06;;;4.90;100.00
36598;BME280;22607;49.550;11.940;2023-11-19T03:28:34;96645.84;;;5.16;100.00
36598;BME280;22607;49.550;11.940;2023-11-19T03:31:01;96641.19;;;5.10;100.00
36598;BME280;22607;49.550;11.940;2023-11-19T03:33:30;96637.31;;;4.86;100.00
36598;BME280;22607;49.550;11.940;2023-11-19T03:36:01;96629.88;;;4.91;100.00
36598;BME280;22607;49.550;11.940;2023-11-19T03:38:28;96634.94;;;5.03;100.00
36598;BME280;22607;49.550;11.940;2023-11-19T03:40:54;96615.50;;;4.87;100.00
36598;BME280;22607;49.550;11.940;2023-11-19T03:43:21;96597.53;;;5.04;100.00
36598;BME280;22607;49.550;11.940;2023-11-19T03:45:48;96607.75;;;5.15;100.00
36598;BME280;22607;49.550;11.940;2023-11-19T03:48:15;96596.22;;;5.18;100.00
36598;BME280;22607;49.550;11.940;2023-11-19T03:50:43;96590.50;;;5.14;100.00
36598;BME280;22607;49.550;11.940;2023-11-19T03:53:11;96598.28;;;5.24;100.00
36598;BME280;22607;49.550;11.940;2023-11-19T03:55:38;96601.31;;;4.81;100.00
36598;BME280;22607;49.550;11.940;2023-11-19T03:58:06;96605.06;;;5.07;100.00
36598;BME280;22607;49.550;11.940;2023-11-19T04:00:33;96603.97;;;4.99;100.00
36598;BME280;22607;49.550;11.940;2023-11-19T04:02:59;96598.53;;;4.93;100.00
36598;BME280;22607;49.550;11.940;2023-11-19T04:05:28;96591.50;;;5.03;100.00
36598;BME280;22607;49.550;11.940;2023-11-19T04:07:54;96577.84;;;5.19;100.00
36598;BME280;22607;49.550;11.940;2023-11-19T04:10:21;96561.44;;;5.19;100.00
36598;BME280;22607;49.550;11.940;2023-11-19T04:12:49;96540.28;;;5.22;100.00
36598;BME280;22607;49.550;11.940;2023-11-19T04:15:16;96531.47;;;5.33;100.00
36598;BME280;22607;49.550;11.940;2023-11-19T04:17:44;96545.63;;;4.92;100.00
36598;BME280;22607;49.550;11.940;2023-11-19T04:20:11;96533.72;;;5.18;100.00
36598;BME280;22607;49.550;11.940;2023-11-19T04:22:41;96523.00;;;5.03;100.00
36598;BME280;22607;49.550;11.940;2023-11-19T04:25:07;96513.59;;;4.92;100.00
36598;BME280;22607;49.550;11.940;2023-11-19T04:27:34;96521.34;;;4.73;100.00
36598;BME280;22607;49.550;11.940;2023-11-19T04:30:01;96531.38;;;4.96;100.00
36598;BME280;22607;49.550;11.940;2023-11-19T04:32:29;96524.16;;;5.18;100.00
36598;BME280;22607;49.550;11.940;2023-11-19T04:34:56;96512.28;;;5.06;100.00
36598;BME280;22607;49.550;11.940;2023-11-19T04:37:22;96509.03;;;5.04;100.00
36598;BME280;22607;49.550;11.940;2023-11-19T04:39:49;96520.53;;;5.01;100.00
36598;BME280;22607;49.550;11.940;2023-11-19T04:42:16;96503.19;;;4.92;100.00
36598;BME280;22607;49.550;11.940;2023-11-19T04:44:43;96502.19;;;5.03;100.00
36598;BME280;22607;49.550;11.940;2023-11-19T04:47:10;96512.72;;;5.29;100.00
36598;BME280;22607;49.550;11.940;2023-11-19T04:49:41;96535.00;;;5.13;100.00
36598;BME280;22607;49.550;11.940;2023-11-19T04:52:09;96543.63;;;5.14;100.00
36598;BME280;22607;49.550;11.940;2023-11-19T04:54:40;96543.25;;;5.09;100.00
36598;BME280;22607;49.550;11.940;2023-11-19T04:57:07;96532.22;;;4.97;100.00
36598;BME280;22607;49.550;11.940;2023-11-19T04:59:36;96553.75;;;5.17;100.00
36598;BME280;22607;49.550;11.940;2023-11-19T05:02:09;96564.09;;;4.99;100.00
36598;BME280;22607;49.550;11.940;2023-11-19T05:04:36;96554.00;;;4.96;100.00
36598;BME280;22607;49.550;11.940;2023-11-19T05:07:04;96570.91;;;5.10;100.00
36598;BME280;22607;49.550;11.940;2023-11-19T05:09:31;96554.53;;;5.28;100.00
36598;BME280;22607;49.550;11.940;2023-11-19T05:11:57;96558.97;;;5.17;100.00
36598;BME280;22607;49.550;11.940;2023-11-19T05:14:24;96560.31;;;5.21;100.00
36598;BME280;22607;49.550;11.940;2023-11-19T05:16:51;96553.31;;;5.22;100.00
36598;BME280;22607;49.550;11.940;2023-11-19T05:19:17;96537.50;;;5.33;100.00
36598;BME280;22607;49.550;11.940;2023-11-19T05:21:44;96547.00;;;5.24;100.00
36598;BME280;22607;49.550;11.940;2023-11-19T05:24:11;96545.22;;;5.25;100.00
36598;BME280;22607;49.550;11.940;2023-11-19T05:26:41;96541.94;;;5.23;100.00
36598;BME280;22607;49.550;11.940;2023-11-19T05:29:09;96529.00;;;5.31;100.00
36598;BME280;22607;49.550;11.940;2023-11-19T05:31:35;96544.78;;;5.30;100.00
36598;BME280;22607;49.550;11.940;2023-11-19T05:34:05;96524.56;;;5.42;100.00
36598;BME280;22607;49.550;11.940;2023-11-19T05:36:34;96523.88;;;5.58;100.00
36598;BME280;22607;49.550;11.940;2023-11-19T05:39:00;96515.88;;;5.23;100.00
36598;BME280;22607;49.550;11.940;2023-11-19T05:41:27;96528.06;;;5.32;100.00
36598;BME280;22607;49.550;11.940;2023-11-19T05:43:54;96523.50;;;5.34;100.00
36598;BME280;22607;49.550;11.940;2023-11-19T05:46:20;96509.84;;;5.32;100.00
36598;BME280;22607;49.550;11.940;2023-11-19T05:48:48;96505.16;;;5.36;100.00
36598;BME280;22607;49.550;11.940;2023-11-19T05:51:15;96503.19;;;5.38;100.00
36598;BME280;22607;49.550;11.940;2023-11-19T05:53:42;96502.16;;;5.49;100.00
36598;BME280;22607;49.550;11.940;2023-11-19T05:56:09;96497.56;;;5.61;100.00
36598;BME280;22607;49.550;11.940;2023-11-19T05:58:36;96499.56;;;5.49;100.00
36598;BME280;22607;49.550;11.940;2023-11-19T06:01:04;96491.00;;;5.57;100.00
36598;BME280;22607;49.550;11.940;2023-11-19T06:03:31;96470.53;;;5.62;100.00
36598;BME280;22607;49.550;11.940;2023-11-19T06:05:58;96479.00;;;5.46;100.00
36598;BME280;22607;49.550;11.940;2023-11-19T06:08:25;96493.59;;;5.38;100.00
36598;BME280;22607;49.550;11.940;2023-11-19T06:10:53;96492.22;;;5.44;100.00
36598;BME280;22607;49.550;11.940;2023-11-19T06:13:20;96491.31;;;5.54;100.00
36598;BME280;22607;49.550;11.940;2023-11-19T06:15:51;96493.75;;;5.55;100.00
36598;BME280;22607;49.550;11.940;2023-11-19T06:18:18;96494.81;;;5.62;100.00
36598;BME280;22607;49.550;11.940;2023-11-19T06:20:47;96490.41;;;5.63;100.00
36598;BME280;22607;49.550;11.940;2023-11-19T06:23:13;96492.03;;;5.82;100.00
36598;BME280;22607;49.550;11.940;2023-11-19T06:25:40;96489.53;;;5.72;100.00
36598;BME280;22607;49.550;11.940;2023-11-19T06:28:08;96488.75;;;5.62;100.00
36598;BME280;22607;49.550;11.940;2023-11-19T06:30:35;96493.75;;;5.55;100.00
36598;BME280;22607;49.550;11.940;2023-11-19T06:33:02;96506.94;;;5.54;100.00
36598;BME280;22607;49.550;11.940;2023-11-19T06:35:30;96503.78;;;5.50;100.00
36598;BME280;22607;49.550;11.940;2023-11-19T06:38:03;96512.44;;;5.50;100.00
36598;BME280;22607;49.550;11.940;2023-11-19T06:40:34;96508.44;;;5.56;100.00
36598;BME280;22607;49.550;11.940;2023-11-19T06:43:04;96504.75;;;5.67;100.00
36598;BME280;22607;49.550;11.940;2023-11-19T06:45:31;96487.88;;;5.71;100.00
36598;BME280;22607;49.550;11.940;2023-11-19T06:48:00;96496.94;;;5.85;100.00
36598;BME280;22607;49.550;11.940;2023-11-19T06:50:30;96488.66;;;5.90;100.00
36598;BME280;22607;49.550;11.940;2023-11-19T06:52:56;96490.41;;;5.63;100.00
36598;BME280;22607;49.550;11.940;2023-11-19T06:55:23;96497.50;;;5.71;100.00
36598;BME280;22607;49.550;11.940;2023-11-19T06:57:50;96490.09;;;5.66;100.00
36598;BME280;22607;49.550;11.940;2023-11-19T07:00:16;96478.72;;;5.67;100.00
36598;BME280;22607;49.550;11.940;2023-11-19T07:02:44;96481.03;;;5.70;100.00
36598;BME280;22607;49.550;11.940;2023-11-19T07:05:11;96484.47;;;5.71;100.00
36598;BME280;22607;49.550;11.940;2023-11-19T07:07:41;96504.25;;;5.63;100.00
36598;BME280;22607;49.550;11.940;2023-11-19T07:10:07;96479.81;;;5.64;100.00
36598;BME280;22607;49.550;11.940;2023-11-19T07:12:36;96499.47;;;5.77;100.00
36598;BME280;22607;49.550;11.940;2023-11-19T07:15:04;96500.69;;;5.83;100.00
36598;BME280;22607;49.550;11.940;2023-11-19T07:17:31;96493.91;;;5.72;100.00
36598;BME280;22607;49.550;11.940;2023-11-19T07:19:58;96492.28;;;5.71;100.00
36598;BME280;22607;49.550;11.940;2023-11-19T07:22:26;96495.63;;;5.81;100.00
36598;BME280;22607;49.550;11.940;2023-11-19T07:24:56;96484.31;;;5.72;100.00
36598;BME280;22607;49.550;11.940;2023-11-19T07:27:23;96503.44;;;5.81;100.00
36598;BME280;22607;49.550;11.940;2023-11-19T07:29:50;96498.88;;;6.01;100.00
36598;BME280;22607;49.550;11.940;2023-11-19T07:32:17;96497.72;;;5.77;100.00
36598;BME280;22607;49.550;11.940;2023-11-19T07:34:44;96493.75;;;5.55;100.00
36598;BME280;22607;49.550;11.940;2023-11-19T07:37:12;96491.38;;;5.80;100.00
36598;BME280;22607;49.550;11.940;2023-11-19T07:39:39;96481.03;;;5.88;100.00
36598;BME280;22607;49.550;11.940;2023-11-19T07:42:08;96498.50;;;5.96;100.00
36598;BME280;22607;49.550;11.940;2023-11-19T07:44:36;96498.50;;;5.96;100.00
36598;BME280;22607;49.550;11.940;2023-11-19T07:47:03;96479.88;;;6.09;100.00
36598;BME280;22607;49.550;11.940;2023-11-19T07:49:30;96483.75;;;6.05;100.00
36598;BME280;22607;49.550;11.940;2023-11-19T07:51:58;96492.09;;;6.09;100.00
36598;BME280;22607;49.550;11.940;2023-11-19T07:54:24;96492.00;;;6.19;100.00
36598;BME280;22607;49.550;11.940;2023-11-19T07:56:51;96489.69;;;6.15;100.00
36598;BME280;22607;49.550;11.940;2023-11-19T07:59:17;96485.59;;;6.13;100.00
36598;BME280;22607;49.550;11.940;2023-11-19T08:01:44;96486.06;;;6.08;100.00
36598;BME280;22607;49.550;11.940;2023-11-19T08:04:11;96478.56;;;6.05;100.00
36598;BME280;22607;49.550;11.940;2023-11-19T08:06:38;96486.94;;;6.17;100.00
36598;BME280;22607;49.550;11.940;2023-11-19T08:09:04;96486.03;;;6.26;100.00
36598;BME280;22607;49.550;11.940;2023-11-19T08:11:32;96500.75;;;6.36;100.00
36598;BME280;22607;49.550;11.940;2023-11-19T08:13:59;96488.69;;;6.35;100.00
36598;BME280;22607;49.550;11.940;2023-11-19T08:16:26;96497.16;;;6.37;100.00
36598;BME280;22607;49.550;11.940;2023-11-19T08:18:53;96482.25;;;6.47;100.00
36598;BME280;22607;49.550;11.940;2023-11-19T08:21:21;96488.97;;;6.58;100.00
36598;BME280;22607;49.550;11.940;2023-11-19T08:23:49;96503.47;;;6.52;100.00
36598;BME280;22607;49.550;11.940;2023-11-19T08:26:16;96487.13;;;6.50;100.00
36598;BME280;22607;49.550;11.940;2023-11-19T08:28:47;96496.63;;;6.60;100.00
36598;BME280;22607;49.550;11.940;2023-11-19T08:31:14;96500.94;;;6.42;100.00
36598;BME280;22607;49.550;11.940;2023-11-19T08:33:40;96490.38;;;6.44;100.00
36598;BME280;22607;49.550;11.940;2023-11-19T08:36:07;96489.44;;;6.53;100.00
36598;BME280;22607;49.550;11.940;2023-11-19T08:38:34;96464.88;;;6.64;100.00
36598;BME280;22607;49.550;11.940;2023-11-19T08:41:00;96484.03;;;6.81;100.00
36598;BME280;22607;49.550;11.940;2023-11-19T08:43:27;96473.78;;;6.88;100.00
36598;BME280;22607;49.550;11.940;2023-11-19T08:45:54;96474.28;;;6.92;100.00
36598;BME280;22607;49.550;11.940;2023-11-19T08:48:21;96472.34;;;7.02;100.00
36598;BME280;22607;49.550;11.940;2023-11-19T08:50:52;96475.28;;;6.99;100.00
36598;BME280;22607;49.550;11.940;2023-11-19T08:53:19;96489.59;;;6.87;100.00
36598;BME280;22607;49.550;11.940;2023-11-19T08:55:46;96486.72;;;6.98;100.00
36598;BME280;22607;49.550;11.940;2023-11-19T08:58:12;96488.19;;;7.01;100.00
36598;BME280;22607;49.550;11.940;2023-11-19T09:00:41;96483.16;;;7.07;100.00
36598;BME280;22607;49.550;11.940;2023-11-19T09:03:08;96477.75;;;7.01;100.00
36598;BME280;22607;49.550;11.940;2023-11-19T09:05:38;96470.75;;;7.09;100.00
36598;BME280;22607;49.550;11.940;2023-11-19T09:08:05;96472.41;;;7.19;100.00
36598;BME280;22607;49.550;11.940;2023-11-19T09:10:32;96466.53;;;7.17;100.00
36598;BME280;22607;49.550;11.940;2023-11-19T09:12:59;96460.97;;;7.20;100.00
36598;BME280;22607;49.550;11.940;2023-11-19T09:15:26;96468.19;;;7.26;100.00
36598;BME280;22607;49.550;11.940;2023-11-19T09:17:52;96479.28;;;7.28;100.00
36598;BME280;22607;49.550;11.940;2023-11-19T09:20:19;96477.31;;;7.30;100.00
36598;BME280;22607;49.550;11.940;2023-11-19T09:22:45;96470.63;;;7.36;100.00
36598;BME280;22607;49.550;11.940;2023-11-19T09:25:12;96479.94;;;7.39;100.00
36598;BME280;22607;49.550;11.940;2023-11-19T09:27:43;96481.94;;;7.45;100.00
36598;BME280;22607;49.550;11.940;2023-11-19T09:30:11;96476.69;;;7.45;100.00
36598;BME280;22607;49.550;11.940;2023-11-19T09:32:37;96472.09;;;7.30;100.00
36598;BME280;22607;49.550;11.940;2023-11-19T09:35:08;96475.06;;;7.35;100.00
36598;BME280;22607;49.550;11.940;2023-11-19T09:37:35;96471.63;;;7.43;100.00
36598;BME280;22607;49.550;11.940;2023-11-19T09:40:03;96479.31;;;7.45;100.00
36598;BME280;22607;49.550;11.940;2023-11-19T09:42:33;96477.34;;;7.47;100.00
36598;BME280;22607;49.550;11.940;2023-11-19T09:45:06;96464.44;;;7.45;100.00
36598;BME280;22607;49.550;11.940;2023-11-19T09:47:39;96470.84;;;7.59;100.00
36598;BME280;22607;49.550;11.940;2023-11-19T09:50:09;96463.94;;;7.42;100.00
36598;BME280;22607;49.550;11.940;2023-11-19T09:52:36;96463.63;;;7.45;100.00
36598;BME280;22607;49.550;11.940;2023-11-19T09:55:05;96468.88;;;7.45;100.00
36598;BME280;22607;49.550;11.940;2023-11-19T09:57:38;96458.91;;;7.57;100.00
36598;BME280;22607;49.550;11.940;2023-11-19T10:00:05;96464.94;;;7.66;100.00
36598;BME280;22607;49.550;11.940;2023-11-19T10:02:43;96464.81;;;7.75;100.00
36598;BME280;22607;49.550;11.940;2023-11-19T10:05:13;96466.25;;;7.95;100.00
36598;BME280;22607;49.550;11.940;2023-11-19T10:07:41;96462.16;;;8.00;100.00
36598;BME280;22607;49.550;11.940;2023-11-19T10:10:12;96475.25;;;8.00;100.00
36598;BME280;22607;49.550;11.940;2023-11-19T10:12:42;96478.03;;;8.07;100.00
36598;BME280;22607;49.550;11.940;2023-11-19T10:15:24;96472.78;;;8.16;100.00
36598;BME280;22607;49.550;11.940;2023-11-19T10:17:57;96471.94;;;8.23;100.00
36598;BME280;22607;49.550;11.940;2023-11-19T10:20:24;96475.88;;;8.27;100.00
36598;BME280;22607;49.550;11.940;2023-11-19T10:22:55;96461.28;;;8.41;100.00
36598;BME280;22607;49.550;11.940;2023-11-19T10:25:25;96458.19;;;8.55;100.00
36598;BME280;22607;49.550;11.940;2023-11-19T10:27:54;96446.19;;;8.60;100.00
36598;BME280;22607;49.550;11.940;2023-11-19T10:30:24;96460.09;;;8.69;100.00
36598;BME280;22607;49.550;11.940;2023-11-19T10:33:05;96461.38;;;8.73;100.00
36598;BME280;22607;49.550;11.940;2023-11-19T10:35:50;96458.06;;;8.88;100.00
36598;BME280;22607;49.550;11.940;2023-11-19T10:38:22;96445.38;;;9.00;100.00
36598;BME280;22607;49.550;11.940;2023-11-19T10:40:49;96431.66;;;8.89;100.00
36598;BME280;22607;49.550;11.940;2023-11-19T10:43:18;96438.13;;;9.10;100.00
36598;BME280;22607;49.550;11.940;2023-11-19T10:45:45;96436.22;;;9.27;100.00
36598;BME280;22607;49.550;11.940;2023-11-19T10:48:12;96425.84;;;9.34;100.00
36598;BME280;22607;49.550;11.940;2023-11-19T10:50:41;96402.50;;;9.48;100.00
36598;BME280;22607;49.550;11.940;2023-11-19T10:53:09;96406.94;;;9.85;100.00
36598;BME280;22607;49.550;11.940;2023-11-19T10:55:37;96403.19;;;10.18;100.00
36598;BME280;22607;49.550;11.940;2023-11-19T10:58:09;96412.16;;;10.24;100.00
36598;BME280;22607;49.550;11.940;2023-11-19T11:00:45;96415.88;;;10.30;100.00
36598;BME280;22607;49.550;11.940;2023-11-19T11:03:22;96396.75;;;10.21;100.00
36598;BME280;22607;49.550;11.940;2023-11-19T11:05:53;96408.00;;;10.45;100.00
36598;BME280;22607;49.550;11.940;2023-11-19T11:08:20;96409.19;;;10.57;100.00
36598;BME280;22607;49.550;11.940;2023-11-19T11:10:56;96404.34;;;10.91;100.00
36598;BME280;22607;49.550;11.940;2023-11-19T11:13:25;96406.47;;;11.02;100.00
36598;BME280;22607;49.550;11.940;2023-11-19T11:15:56;96409.09;;;11.02;100.00
36598;BME280;22607;49.550;11.940;2023-11-19T11:18:29;96412.53;;;11.03;100.00
36598;BME280;22607;49.550;11.940;2023-11-19T11:21:20;96411.81;;;10.94;100.00
36598;BME280;22607;49.550;11.940;2023-11-19T11:23:56;96406.47;;;11.02;100.00
36598;BME280;22607;49.550;11.940;2023-11-19T11:27:07;96404.19;;;10.99;100.00
36598;BME280;22607;49.550;11.940;2023-11-19T11:29:51;96394.03;;;10.74;100.00
36598;BME280;22607;49.550;11.940;2023-11-19T11:32:37;96395.19;;;11.09;100.00
36598;BME280;22607;49.550;11.940;2023-11-19T11:37:47;96382.84;;;11.24;100.00
36598;BME280;22607;49.550;11.940;2023-11-19T11:40:17;96381.19;;;11.01;100.00
36598;BME280;22607;49.550;11.940;2023-11-19T11:42:45;96380.13;;;10.96;100.00
36598;BME280;22607;49.550;11.940;2023-11-19T11:45:14;96382.19;;;11.00;100.00
36598;BME280;22607;49.550;11.940;2023-11-19T11:50:20;96404.22;;;11.21;100.00
36598;BME280;22607;49.550;11.940;2023-11-19T11:57:52;96384.88;;;11.29;100.00
36598;BME280;22607;49.550;11.940;2023-11-19T12:00:39;96394.84;;;11.55;100.00
36598;BME280;22607;49.550;11.940;2023-11-19T12:03:08;96391.09;;;11.43;100.00
36598;BME280;22607;49.550;11.940;2023-11-19T12:05:42;96377.72;;;11.38;100.00
36598;BME280;22607;49.550;11.940;2023-11-19T12:08:18;96384.97;;;11.36;100.00
36598;BME280;22607;49.550;11.940;2023-11-19T12:10:52;96373.31;;;11.45;100.00
36598;BME280;22607;49.550;11.940;2023-11-19T12:13:21;96374.00;;;11.32;100.00
36598;BME280;22607;49.550;11.940;2023-11-19T12:19:02;96381.31;;;11.37;100.00
36598;BME280;22607;49.550;11.940;2023-11-19T12:21:37;96376.59;;;11.47;100.00
36598;BME280;22607;49.550;11.940;2023-11-19T12:24:35;96375.81;;;11.32;100.00
36598;BME280;22607;49.550;11.940;2023-11-19T12:27:02;96365.81;;;11.42;100.00
36598;BME280;22607;49.550;11.940;2023-11-19T12:29:41;96371.44;;;11.61;100.00
36598;BME280;22607;49.550;11.940;2023-11-19T12:32:08;96348.56;;;11.33;100.00
36598;BME280;22607;49.550;11.940;2023-11-19T12:34:40;96349.41;;;11.40;100.00
36598;BME280;22607;49.550;11.940;2023-11-19T12:37:07;96347.91;;;11.31;100.00
36598;BME280;22607;49.550;11.940;2023-11-19T12:39:37;96344.16;;;11.18;100.00
36598;BME280;22607;49.550;11.940;2023-11-19T12:42:04;96351.72;;;11.28;100.00
36598;BME280;22607;49.550;11.940;2023-11-19T12:44:31;96347.97;;;11.37;100.00
36598;BME280;22607;49.550;11.940;2023-11-19T12:47:05;96341.69;;;11.38;100.00
36598;BME280;22607;49.550;11.940;2023-11-19T12:49:37;96335.66;;;11.38;100.00
36598;BME280;22607;49.550;11.940;2023-11-19T12:52:29;96347.19;;;11.43;100.00
36598;BME280;22607;49.550;11.940;2023-11-19T12:54:56;96342.75;;;11.44;100.00
36598;BME280;22607;49.550;11.940;2023-11-19T13:00:05;96345.66;;;11.27;100.00
36598;BME280;22607;49.550;11.940;2023-11-19T13:02:49;96330.69;;;11.50;100.00
36598;BME280;22607;49.550;11.940;2023-11-19T13:05:33;96334.69;;;11.46;100.00
36598;BME280;22607;49.550;11.940;2023-11-19T13:08:04;96336.13;;;11.48;100.00
36598;BME280;22607;49.550;11.940;2023-11-19T13:10:32;96341.03;;;11.29;100.00
36598;BME280;22607;49.550;11.940;2023-11-19T13:13:04;96340.72;;;11.39;100.00